sensor_id;sensor_type;location;lat;lon;timestamp;P1;durP1;ratioP1;P2;durP2;ratioP2
52126;SDS011;38120;53.176;6.614;2023-03-13T00:01:59;22.63;;;6.10;;
52126;SDS011;38120;53.176;6.614;2023-03-13T00:04:25;19.87;;;5.80;;
52126;SDS011;38120;53.176;6.614;2023-03-13T00:06:51;21.95;;;5.30;;
52126;SDS011;38120;53.176;6.614;2023-03-13T00:09:16;20.10;;;6.17;;
52126;SDS011;38120;53.176;6.614;2023-03-13T00:11:43;22.05;;;6.68;;
52126;SDS011;38120;53.176;6.614;2023-03-13T00:14:09;26.30;;;5.70;;
52126;SDS011;38120;53.176;6.614;2023-03-13T00:16:36;26.23;;;6.93;;
52126;SDS011;38120;53.176;6.614;2023-03-13T00:19:03;15.52;;;5.82;;
52126;SDS011;38120;53.176;6.614;2023-03-13T00:21:30;25.45;;;7.10;;
52126;SDS011;38120;53.176;6.614;2023-03-13T00:23:57;23.52;;;6.70;;
52126;SDS011;38120;53.176;6.614;2023-03-13T00:26:25;26.10;;;6.63;;
52126;SDS011;38120;53.176;6.614;2023-03-13T00:28:51;20.65;;;6.25;;
52126;SDS011;38120;53.176;6.614;2023-03-13T00:31:19;24.92;;;7.25;;
52126;SDS011;38120;53.176;6.614;2023-03-13T00:33:47;20.42;;;8.23;;
52126;SDS011;38120;53.176;6.614;2023-03-13T00:36:24;22.42;;;6.47;;
52126;SDS011;38120;53.176;6.614;2023-03-13T00:41:20;35.95;;;7.38;;
52126;SDS011;38120;53.176;6.614;2023-03-13T00:43:48;26.13;;;8.10;;
52126;SDS011;38120;53.176;6.614;2023-03-13T00:46:15;28.60;;;6.90;;
52126;SDS011;38120;53.176;6.614;2023-03-13T00:48:42;30.92;;;8.45;;
52126;SDS011;38120;53.176;6.614;2023-03-13T00:51:08;23.50;;;6.67;;
52126;SDS011;38120;53.176;6.614;2023-03-13T00:53:35;27.50;;;6.85;;
52126;SDS011;38120;53.176;6.614;2023-03-13T00:56:05;38.97;;;8.77;;
52126;SDS011;38120;53.176;6.614;2023-03-13T00:58:34;35.78;;;8.05;;
52126;SDS011;38120;53.176;6.614;2023-03-13T01:01:21;21.13;;;7.10;;
52126;SDS011;38120;53.176;6.614;2023-03-13T01:03:49;25.02;;;7.43;;
52126;SDS011;38120;53.176;6.614;2023-03-13T01:06:18;30.08;;;8.60;;
52126;SDS011;38120;53.176;6.614;2023-03-13T01:08:45;22.40;;;7.03;;
52126;SDS011;38120;53.176;6.614;2023-03-13T01:11:13;18.83;;;6.70;;
52126;SDS011;38120;53.176;6.614;2023-03-13T01:13:40;24.42;;;5.95;;
52126;SDS011;38120;53.176;6.614;2023-03-13T01:16:08;23.60;;;6.72;;
52126;SDS011;38120;53.176;6.614;2023-03-13T01:18:37;28.15;;;7.78;;
52126;SDS011;38120;53.176;6.614;2023-03-13T01:21:04;34.50;;;7.93;;
52126;SDS011;38120;53.176;6.614;2023-03-13T01:23:30;19.48;;;6.80;;
52126;SDS011;38120;53.176;6.614;2023-03-13T01:25:56;20.00;;;6.30;;
52126;SDS011;38120;53.176;6.614;2023-03-13T01:28:23;24.70;;;6.50;;
52126;SDS011;38120;53.176;6.614;2023-03-13T01:30:49;22.80;;;6.50;;
52126;SDS011;38120;53.176;6.614;2023-03-13T01:33:15;26.70;;;6.77;;
52126;SDS011;38120;53.176;6.614;2023-03-13T01:35:41;29.77;;;7.30;;
52126;SDS011;38120;53.176;6.614;2023-03-13T01:38:07;26.58;;;8.00;;
52126;SDS011;38120;53.176;6.614;2023-03-13T01:40:46;21.35;;;6.28;;
52126;SDS011;38120;53.176;6.614;2023-03-13T01:51:43;23.45;;;6.75;;
52126;SDS011;38120;53.176;6.614;2023-03-13T01:54:15;34.58;;;7.63;;
52126;SDS011;38120;53.176;6.614;2023-03-13T01:56:55;21.60;;;6.93;;
52126;SDS011;38120;53.176;6.614;2023-03-13T01:59:25;31.50;;;7.80;;
52126;SDS011;38120;53.176;6.614;2023-03-13T02:01:56;29.98;;;6.53;;
52126;SDS011;38120;53.176;6.614;2023-03-13T02:04:26;19.30;;;5.72;;
52126;SDS011;38120;53.176;6.614;2023-03-13T02:06:56;24.83;;;6.72;;
52126;SDS011;38120;53.176;6.614;2023-03-13T02:09:27;18.35;;;5.05;;
52126;SDS011;38120;53.176;6.614;2023-03-13T02:14:36;17.20;;;6.13;;
52126;SDS011;38120;53.176;6.614;2023-03-13T02:17:03;18.17;;;6.07;;
52126;SDS011;38120;53.176;6.614;2023-03-13T02:19:32;18.13;;;6.28;;
52126;SDS011;38120;53.176;6.614;2023-03-13T02:22:27;21.55;;;6.47;;
52126;SDS011;38120;53.176;6.614;2023-03-13T02:27:47;21.38;;;6.63;;
52126;SDS011;38120;53.176;6.614;2023-03-13T02:30:22;17.90;;;6.20;;
52126;SDS011;38120;53.176;6.614;2023-03-13T02:32:48;23.48;;;6.63;;
52126;SDS011;38120;53.176;6.614;2023-03-13T02:35:16;20.75;;;6.40;;
52126;SDS011;38120;53.176;6.614;2023-03-13T02:37:46;15.90;;;5.75;;
52126;SDS011;38120;53.176;6.614;2023-03-13T02:40:15;17.02;;;6.68;;
52126;SDS011;38120;53.176;6.614;2023-03-13T02:42:46;25.92;;;6.20;;
52126;SDS011;38120;53.176;6.614;2023-03-13T02:45:15;16.58;;;7.50;;
52126;SDS011;38120;53.176;6.614;2023-03-13T02:47:41;24.92;;;6.50;;
52126;SDS011;38120;53.176;6.614;2023-03-13T02:50:07;17.13;;;6.53;;
52126;SDS011;38120;53.176;6.614;2023-03-13T02:52:37;18.35;;;6.28;;
52126;SDS011;38120;53.176;6.614;2023-03-13T02:55:08;16.75;;;5.78;;
52126;SDS011;38120;53.176;6.614;2023-03-13T02:57:38;11.80;;;5.03;;
52126;SDS011;38120;53.176;6.614;2023-03-13T03:00:05;15.17;;;5.70;;
52126;SDS011;38120;53.176;6.614;2023-03-13T03:02:31;16.70;;;4.88;;
52126;SDS011;38120;53.176;6.614;2023-03-13T03:04:57;11.13;;;4.32;;
52126;SDS011;38120;53.176;6.614;2023-03-13T03:07:23;11.93;;;4.43;;
52126;SDS011;38120;53.176;6.614;2023-03-13T03:09:48;12.30;;;4.10;;
52126;SDS011;38120;53.176;6.614;2023-03-13T03:12:14;7.87;;;3.73;;
52126;SDS011;38120;53.176;6.614;2023-03-13T03:14:40;8.07;;;3.83;;
52126;SDS011;38120;53.176;6.614;2023-03-13T03:17:05;9.18;;;4.45;;
52126;SDS011;38120;53.176;6.614;2023-03-13T03:19:31;6.00;;;3.10;;
52126;SDS011;38120;53.176;6.614;2023-03-13T03:21:57;6.60;;;3.50;;
52126;SDS011;38120;53.176;6.614;2023-03-13T03:24:22;9.33;;;3.43;;
52126;SDS011;38120;53.176;6.614;2023-03-13T03:26:48;9.43;;;3.13;;
52126;SDS011;38120;53.176;6.614;2023-03-13T03:29:14;7.57;;;3.30;;
52126;SDS011;38120;53.176;6.614;2023-03-13T03:31:40;7.43;;;3.37;;
52126;SDS011;38120;53.176;6.614;2023-03-13T03:34:05;7.10;;;2.90;;
52126;SDS011;38120;53.176;6.614;2023-03-13T03:36:31;8.20;;;3.03;;
52126;SDS011;38120;53.176;6.614;2023-03-13T03:38:57;7.85;;;3.10;;
52126;SDS011;38120;53.176;6.614;2023-03-13T03:41:23;5.93;;;2.95;;
52126;SDS011;38120;53.176;6.614;2023-03-13T03:43:49;6.22;;;2.83;;
52126;SDS011;38120;53.176;6.614;2023-03-13T03:46:15;5.33;;;2.70;;
52126;SDS011;38120;53.176;6.614;2023-03-13T03:48:41;5.10;;;2.80;;
52126;SDS011;38120;53.176;6.614;2023-03-13T03:51:07;5.00;;;2.50;;
52126;SDS011;38120;53.176;6.614;2023-03-13T03:53:33;7.05;;;2.63;;
52126;SDS011;38120;53.176;6.614;2023-03-13T03:56:00;10.82;;;3.08;;
52126;SDS011;38120;53.176;6.614;2023-03-13T03:58:26;4.95;;;2.25;;
52126;SDS011;38120;53.176;6.614;2023-03-13T04:00:51;5.90;;;3.13;;
52126;SDS011;38120;53.176;6.614;2023-03-13T04:03:17;7.93;;;2.90;;
52126;SDS011;38120;53.176;6.614;2023-03-13T04:05:43;4.93;;;2.70;;
52126;SDS011;38120;53.176;6.614;2023-03-13T04:08:09;5.37;;;2.47;;
52126;SDS011;38120;53.176;6.614;2023-03-13T04:10:34;6.85;;;2.80;;
52126;SDS011;38120;53.176;6.614;2023-03-13T04:13:00;5.80;;;2.83;;
52126;SDS011;38120;53.176;6.614;2023-03-13T04:15:26;6.47;;;2.50;;
52126;SDS011;38120;53.176;6.614;2023-03-13T04:17:52;5.13;;;2.65;;
52126;SDS011;38120;53.176;6.614;2023-03-13T04:20:18;7.57;;;3.33;;
52126;SDS011;38120;53.176;6.614;2023-03-13T04:22:44;5.70;;;2.22;;
52126;SDS011;38120;53.176;6.614;2023-03-13T04:25:09;5.73;;;2.63;;
52126;SDS011;38120;53.176;6.614;2023-03-13T04:27:35;6.18;;;3.28;;
52126;SDS011;38120;53.176;6.614;2023-03-13T04:30:01;5.20;;;3.20;;
52126;SDS011;38120;53.176;6.614;2023-03-13T04:32:27;5.20;;;3.20;;
52126;SDS011;38120;53.176;6.614;2023-03-13T04:34:53;5.13;;;2.93;;
52126;SDS011;38120;53.176;6.614;2023-03-13T04:37:18;7.07;;;3.53;;
52126;SDS011;38120;53.176;6.614;2023-03-13T04:39:44;5.30;;;3.50;;
52126;SDS011;38120;53.176;6.614;2023-03-13T04:42:11;7.35;;;4.55;;
52126;SDS011;38120;53.176;6.614;2023-03-13T04:44:37;7.35;;;4.13;;
52126;SDS011;38120;53.176;6.614;2023-03-13T04:47:03;8.32;;;4.97;;
52126;SDS011;38120;53.176;6.614;2023-03-13T04:49:29;7.25;;;4.18;;
52126;SDS011;38120;53.176;6.614;2023-03-13T04:51:55;9.80;;;4.13;;
52126;SDS011;38120;53.176;6.614;2023-03-13T04:54:21;8.27;;;4.55;;
52126;SDS011;38120;53.176;6.614;2023-03-13T04:56:46;7.93;;;4.15;;
52126;SDS011;38120;53.176;6.614;2023-03-13T04:59:13;8.65;;;4.90;;
52126;SDS011;38120;53.176;6.614;2023-03-13T05:01:39;9.02;;;5.85;;
52126;SDS011;38120;53.176;6.614;2023-03-13T05:04:06;9.35;;;4.95;;
52126;SDS011;38120;53.176;6.614;2023-03-13T05:06:32;9.20;;;5.35;;
52126;SDS011;38120;53.176;6.614;2023-03-13T05:08:58;9.77;;;5.30;;
52126;SDS011;38120;53.176;6.614;2023-03-13T05:11:23;7.57;;;4.35;;
52126;SDS011;38120;53.176;6.614;2023-03-13T05:13:49;7.07;;;4.18;;
52126;SDS011;38120;53.176;6.614;2023-03-13T05:16:15;12.07;;;4.40;;
52126;SDS011;38120;53.176;6.614;2023-03-13T05:18:41;10.43;;;4.70;;
52126;SDS011;38120;53.176;6.614;2023-03-13T05:21:06;4.70;;;3.42;;
52126;SDS011;38120;53.176;6.614;2023-03-13T05:23:32;10.17;;;4.90;;
52126;SDS011;38120;53.176;6.614;2023-03-13T05:25:58;13.40;;;5.68;;
52126;SDS011;38120;53.176;6.614;2023-03-13T05:28:24;10.57;;;6.50;;
52126;SDS011;38120;53.176;6.614;2023-03-13T05:30:50;8.70;;;4.32;;
52126;SDS011;38120;53.176;6.614;2023-03-13T05:33:16;10.85;;;5.18;;
52126;SDS011;38120;53.176;6.614;2023-03-13T05:35:43;12.02;;;5.50;;
52126;SDS011;38120;53.176;6.614;2023-03-13T05:40:35;11.82;;;4.72;;
52126;SDS011;38120;53.176;6.614;2023-03-13T05:43:01;8.00;;;4.60;;
52126;SDS011;38120;53.176;6.614;2023-03-13T05:45:27;9.30;;;4.70;;
52126;SDS011;38120;53.176;6.614;2023-03-13T05:47:53;9.98;;;5.07;;
52126;SDS011;38120;53.176;6.614;2023-03-13T05:50:19;9.57;;;3.72;;
52126;SDS011;38120;53.176;6.614;2023-03-13T05:52:44;7.38;;;4.30;;
52126;SDS011;38120;53.176;6.614;2023-03-13T05:55:10;9.70;;;4.23;;
52126;SDS011;38120;53.176;6.614;2023-03-13T05:57:36;14.03;;;4.93;;
52126;SDS011;38120;53.176;6.614;2023-03-13T06:00:02;9.50;;;4.03;;
52126;SDS011;38120;53.176;6.614;2023-03-13T06:02:28;10.40;;;4.07;;
52126;SDS011;38120;53.176;6.614;2023-03-13T06:04:54;11.45;;;5.22;;
52126;SDS011;38120;53.176;6.614;2023-03-13T06:07:20;11.68;;;4.88;;
52126;SDS011;38120;53.176;6.614;2023-03-13T06:09:45;13.90;;;4.07;;
52126;SDS011;38120;53.176;6.614;2023-03-13T06:12:11;10.53;;;4.40;;
52126;SDS011;38120;53.176;6.614;2023-03-13T06:14:36;11.30;;;4.77;;
52126;SDS011;38120;53.176;6.614;2023-03-13T06:17:03;7.87;;;4.50;;
52126;SDS011;38120;53.176;6.614;2023-03-13T06:19:29;11.23;;;3.67;;
52126;SDS011;38120;53.176;6.614;2023-03-13T06:21:55;7.25;;;3.58;;
52126;SDS011;38120;53.176;6.614;2023-03-13T06:24:21;9.38;;;4.45;;
52126;SDS011;38120;53.176;6.614;2023-03-13T06:26:47;11.57;;;3.85;;
52126;SDS011;38120;53.176;6.614;2023-03-13T06:29:14;10.75;;;4.38;;
52126;SDS011;38120;53.176;6.614;2023-03-13T06:31:40;12.75;;;4.72;;
52126;SDS011;38120;53.176;6.614;2023-03-13T06:34:06;14.13;;;5.20;;
52126;SDS011;38120;53.176;6.614;2023-03-13T06:36:34;9.45;;;5.55;;
52126;SDS011;38120;53.176;6.614;2023-03-13T06:39:00;11.60;;;5.20;;
52126;SDS011;38120;53.176;6.614;2023-03-13T06:41:26;9.27;;;4.55;;
52126;SDS011;38120;53.176;6.614;2023-03-13T06:43:52;15.32;;;6.55;;
52126;SDS011;38120;53.176;6.614;2023-03-13T06:46:19;13.38;;;5.25;;
52126;SDS011;38120;53.176;6.614;2023-03-13T06:48:47;10.10;;;4.93;;
52126;SDS011;38120;53.176;6.614;2023-03-13T06:51:13;11.32;;;3.75;;
52126;SDS011;38120;53.176;6.614;2023-03-13T06:53:41;9.43;;;4.82;;
52126;SDS011;38120;53.176;6.614;2023-03-13T06:56:07;8.90;;;5.03;;
52126;SDS011;38120;53.176;6.614;2023-03-13T07:01:04;12.85;;;6.07;;
52126;SDS011;38120;53.176;6.614;2023-03-13T07:03:35;19.70;;;5.13;;
52126;SDS011;38120;53.176;6.614;2023-03-13T07:06:01;9.15;;;4.05;;
52126;SDS011;38120;53.176;6.614;2023-03-13T07:08:27;7.82;;;4.85;;
52126;SDS011;38120;53.176;6.614;2023-03-13T07:10:57;9.68;;;5.63;;
52126;SDS011;38120;53.176;6.614;2023-03-13T07:13:25;11.15;;;5.65;;
52126;SDS011;38120;53.176;6.614;2023-03-13T07:15:50;10.55;;;4.70;;
52126;SDS011;38120;53.176;6.614;2023-03-13T07:18:16;8.88;;;4.13;;
52126;SDS011;38120;53.176;6.614;2023-03-13T07:20:42;16.27;;;4.82;;
52126;SDS011;38120;53.176;6.614;2023-03-13T07:23:08;7.63;;;4.70;;
52126;SDS011;38120;53.176;6.614;2023-03-13T07:25:34;10.27;;;5.10;;
52126;SDS011;38120;53.176;6.614;2023-03-13T07:28:00;8.10;;;4.13;;
52126;SDS011;38120;53.176;6.614;2023-03-13T07:30:26;10.65;;;5.03;;
52126;SDS011;38120;53.176;6.614;2023-03-13T07:35:18;7.07;;;3.97;;
52126;SDS011;38120;53.176;6.614;2023-03-13T07:37:43;13.53;;;4.43;;
52126;SDS011;38120;53.176;6.614;2023-03-13T07:40:09;9.00;;;4.37;;
52126;SDS011;38120;53.176;6.614;2023-03-13T07:42:38;18.67;;;4.82;;
52126;SDS011;38120;53.176;6.614;2023-03-13T07:45:05;10.35;;;4.72;;
52126;SDS011;38120;53.176;6.614;2023-03-13T07:47:34;14.65;;;4.65;;
52126;SDS011;38120;53.176;6.614;2023-03-13T07:50:00;10.55;;;4.72;;
52126;SDS011;38120;53.176;6.614;2023-03-13T07:52:27;6.97;;;3.30;;
52126;SDS011;38120;53.176;6.614;2023-03-13T07:54:53;9.65;;;4.40;;
52126;SDS011;38120;53.176;6.614;2023-03-13T07:57:19;9.80;;;4.47;;
52126;SDS011;38120;53.176;6.614;2023-03-13T07:59:45;6.35;;;3.53;;
52126;SDS011;38120;53.176;6.614;2023-03-13T08:02:11;13.40;;;4.55;;
52126;SDS011;38120;53.176;6.614;2023-03-13T08:04:41;12.05;;;3.70;;
52126;SDS011;38120;53.176;6.614;2023-03-13T08:07:07;10.43;;;4.18;;
52126;SDS011;38120;53.176;6.614;2023-03-13T08:09:34;6.93;;;2.83;;
52126;SDS011;38120;53.176;6.614;2023-03-13T08:12:00;8.53;;;3.60;;
52126;SDS011;38120;53.176;6.614;2023-03-13T08:14:25;6.50;;;3.10;;
52126;SDS011;38120;53.176;6.614;2023-03-13T08:16:51;7.65;;;2.92;;
52126;SDS011;38120;53.176;6.614;2023-03-13T08:19:17;7.73;;;2.63;;
52126;SDS011;38120;53.176;6.614;2023-03-13T08:21:43;8.18;;;3.58;;
52126;SDS011;38120;53.176;6.614;2023-03-13T08:24:09;9.13;;;3.05;;
52126;SDS011;38120;53.176;6.614;2023-03-13T08:26:38;7.78;;;3.88;;
52126;SDS011;38120;53.176;6.614;2023-03-13T08:29:06;7.53;;;2.80;;
52126;SDS011;38120;53.176;6.614;2023-03-13T08:31:34;4.85;;;2.42;;
52126;SDS011;38120;53.176;6.614;2023-03-13T08:34:03;6.00;;;2.58;;
52126;SDS011;38120;53.176;6.614;2023-03-13T08:36:35;11.53;;;2.70;;
52126;SDS011;38120;53.176;6.614;2023-03-13T08:39:03;12.93;;;2.28;;
52126;SDS011;38120;53.176;6.614;2023-03-13T08:41:32;4.38;;;1.88;;
52126;SDS011;38120;53.176;6.614;2023-03-13T08:44:00;7.07;;;2.40;;
52126;SDS011;38120;53.176;6.614;2023-03-13T08:46:28;5.93;;;1.58;;
52126;SDS011;38120;53.176;6.614;2023-03-13T08:48:54;8.57;;;1.83;;
52126;SDS011;38120;53.176;6.614;2023-03-13T08:51:21;6.90;;;1.43;;
52126;SDS011;38120;53.176;6.614;2023-03-13T08:53:49;3.63;;;1.65;;
52126;SDS011;38120;53.176;6.614;2023-03-13T08:56:16;3.92;;;1.50;;
52126;SDS011;38120;53.176;6.614;2023-03-13T08:58:43;5.72;;;1.70;;
52126;SDS011;38120;53.176;6.614;2023-03-13T09:01:14;5.85;;;1.80;;
52126;SDS011;38120;53.176;6.614;2023-03-13T09:03:40;5.65;;;1.50;;
52126;SDS011;38120;53.176;6.614;2023-03-13T09:06:07;5.32;;;1.33;;
52126;SDS011;38120;53.176;6.614;2023-03-13T09:08:34;8.38;;;1.95;;
52126;SDS011;38120;53.176;6.614;2023-03-13T09:11:02;6.03;;;1.77;;
52126;SDS011;38120;53.176;6.614;2023-03-13T09:13:31;2.58;;;1.30;;
52126;SDS011;38120;53.176;6.614;2023-03-13T09:15:59;8.35;;;2.40;;
52126;SDS011;38120;53.176;6.614;2023-03-13T09:18:26;9.35;;;1.80;;
52126;SDS011;38120;53.176;6.614;2023-03-13T09:20:53;4.38;;;1.75;;
52126;SDS011;38120;53.176;6.614;2023-03-13T09:23:19;5.68;;;1.77;;
52126;SDS011;38120;53.176;6.614;2023-03-13T09:25:46;6.75;;;1.80;;
52126;SDS011;38120;53.176;6.614;2023-03-13T09:28:13;4.45;;;1.48;;
52126;SDS011;38120;53.176;6.614;2023-03-13T09:30:38;9.20;;;1.88;;
52126;SDS011;38120;53.176;6.614;2023-03-13T09:33:04;26.42;;;2.72;;
52126;SDS011;38120;53.176;6.614;2023-03-13T09:35:30;8.25;;;2.55;;
52126;SDS011;38120;53.176;6.614;2023-03-13T09:37:56;8.35;;;2.47;;
52126;SDS011;38120;53.176;6.614;2023-03-13T09:40:23;7.85;;;1.73;;
52126;SDS011;38120;53.176;6.614;2023-03-13T09:42:54;7.30;;;2.72;;
52126;SDS011;38120;53.176;6.614;2023-03-13T09:45:36;7.10;;;2.45;;
52126;SDS011;38120;53.176;6.614;2023-03-13T09:51:01;12.60;;;2.65;;
52126;SDS011;38120;53.176;6.614;2023-03-13T09:53:31;12.63;;;3.08;;
52126;SDS011;38120;53.176;6.614;2023-03-13T09:56:04;9.45;;;2.03;;
52126;SDS011;38120;53.176;6.614;2023-03-13T09:58:43;7.00;;;2.78;;
52126;SDS011;38120;53.176;6.614;2023-03-13T10:01:29;10.10;;;2.42;;
52126;SDS011;38120;53.176;6.614;2023-03-13T10:06:26;8.98;;;2.95;;
52126;SDS011;38120;53.176;6.614;2023-03-13T10:08:54;8.68;;;2.63;;
52126;SDS011;38120;53.176;6.614;2023-03-13T10:11:26;9.90;;;3.20;;
52126;SDS011;38120;53.176;6.614;2023-03-13T10:16:46;10.05;;;3.50;;
52126;SDS011;38120;53.176;6.614;2023-03-13T10:19:22;6.93;;;3.00;;
52126;SDS011;38120;53.176;6.614;2023-03-13T10:21:52;10.50;;;3.03;;
52126;SDS011;38120;53.176;6.614;2023-03-13T10:26:55;10.18;;;2.35;;
52126;SDS011;38120;53.176;6.614;2023-03-13T10:29:22;10.05;;;3.10;;
52126;SDS011;38120;53.176;6.614;2023-03-13T10:31:54;10.05;;;2.72;;
52126;SDS011;38120;53.176;6.614;2023-03-13T10:37:28;6.82;;;2.33;;
52126;SDS011;38120;53.176;6.614;2023-03-13T10:42:51;9.20;;;2.70;;
52126;SDS011;38120;53.176;6.614;2023-03-13T10:45:19;8.77;;;2.70;;
52126;SDS011;38120;53.176;6.614;2023-03-13T10:47:53;12.23;;;2.85;;
52126;SDS011;38120;53.176;6.614;2023-03-13T10:50:21;10.70;;;3.42;;
52126;SDS011;38120;53.176;6.614;2023-03-13T10:52:49;14.45;;;3.33;;
52126;SDS011;38120;53.176;6.614;2023-03-13T10:55:16;13.18;;;2.88;;
52126;SDS011;38120;53.176;6.614;2023-03-13T10:58:18;13.80;;;4.20;;
52126;SDS011;38120;53.176;6.614;2023-03-13T11:00:42;10.05;;;3.35;;
52126;SDS011;38120;53.176;6.614;2023-03-13T11:03:16;12.23;;;2.35;;
52126;SDS011;38120;53.176;6.614;2023-03-13T11:05:45;13.43;;;4.57;;
52126;SDS011;38120;53.176;6.614;2023-03-13T11:08:33;11.07;;;3.03;;
52126;SDS011;38120;53.176;6.614;2023-03-13T11:11:00;13.68;;;3.08;;
52126;SDS011;38120;53.176;6.614;2023-03-13T11:13:35;11.85;;;2.75;;
52126;SDS011;38120;53.176;6.614;2023-03-13T11:16:23;9.55;;;2.25;;
52126;SDS011;38120;53.176;6.614;2023-03-13T11:24:07;10.50;;;3.25;;
52126;SDS011;38120;53.176;6.614;2023-03-13T11:26:42;12.07;;;2.40;;
52126;SDS011;38120;53.176;6.614;2023-03-13T11:32:25;9.80;;;2.75;;
52126;SDS011;38120;53.176;6.614;2023-03-13T11:35:01;11.90;;;3.10;;
52126;SDS011;38120;53.176;6.614;2023-03-13T11:37:32;11.07;;;3.22;;
52126;SDS011;38120;53.176;6.614;2023-03-13T11:45:37;8.95;;;3.08;;
52126;SDS011;38120;53.176;6.614;2023-03-13T11:59:23;10.40;;;1.85;;
52126;SDS011;38120;53.176;6.614;2023-03-13T12:04:41;6.47;;;2.28;;
52126;SDS011;38120;53.176;6.614;2023-03-13T12:07:20;11.77;;;2.38;;
52126;SDS011;38120;53.176;6.614;2023-03-13T12:15:31;7.30;;;2.00;;
52126;SDS011;38120;53.176;6.614;2023-03-13T12:21:03;8.07;;;2.05;;
52126;SDS011;38120;53.176;6.614;2023-03-13T12:26:46;11.45;;;2.80;;
52126;SDS011;38120;53.176;6.614;2023-03-13T12:32:08;7.75;;;2.47;;
52126;SDS011;38120;53.176;6.614;2023-03-13T12:34:54;16.50;;;3.60;;
52126;SDS011;38120;53.176;6.614;2023-03-13T12:40:37;15.85;;;3.42;;
52126;SDS011;38120;53.176;6.614;2023-03-13T12:43:49;11.65;;;3.03;;
52126;SDS011;38120;53.176;6.614;2023-03-13T12:46:16;9.30;;;2.70;;
52126;SDS011;38120;53.176;6.614;2023-03-13T12:49:09;12.82;;;3.75;;
52126;SDS011;38120;53.176;6.614;2023-03-13T12:54:53;9.48;;;3.10;;
52126;SDS011;38120;53.176;6.614;2023-03-13T13:00:27;14.52;;;3.97;;
52126;SDS011;38120;53.176;6.614;2023-03-13T13:03:28;16.80;;;4.03;;
52126;SDS011;38120;53.176;6.614;2023-03-13T13:08:25;7.63;;;2.75;;
52126;SDS011;38120;53.176;6.614;2023-03-13T13:10:51;30.30;;;5.88;;
52126;SDS011;38120;53.176;6.614;2023-03-13T13:13:38;11.50;;;2.70;;
52126;SDS011;38120;53.176;6.614;2023-03-13T13:16:04;11.10;;;2.47;;
52126;SDS011;38120;53.176;6.614;2023-03-13T13:18:35;15.13;;;4.78;;
52126;SDS011;38120;53.176;6.614;2023-03-13T13:26:35;11.48;;;3.03;;
52126;SDS011;38120;53.176;6.614;2023-03-13T13:29:00;11.50;;;4.07;;
52126;SDS011;38120;53.176;6.614;2023-03-13T13:36:56;11.93;;;3.33;;
52126;SDS011;38120;53.176;6.614;2023-03-13T13:47:39;18.25;;;3.67;;
52126;SDS011;38120;53.176;6.614;2023-03-13T13:52:46;18.85;;;5.30;;
52126;SDS011;38120;53.176;6.614;2023-03-13T13:55:56;13.63;;;3.72;;
52126;SDS011;38120;53.176;6.614;2023-03-13T13:58:10;9.43;;;3.30;;
52126;SDS011;38120;53.176;6.614;2023-03-13T14:03:23;12.93;;;3.80;;
52126;SDS011;38120;53.176;6.614;2023-03-13T14:06:16;23.75;;;4.40;;
52126;SDS011;38120;53.176;6.614;2023-03-13T14:08:47;14.38;;;3.95;;
52126;SDS011;38120;53.176;6.614;2023-03-13T14:11:32;19.92;;;4.05;;
52126;SDS011;38120;53.176;6.614;2023-03-13T14:16:44;19.20;;;3.70;;
52126;SDS011;38120;53.176;6.614;2023-03-13T14:19:20;9.13;;;3.00;;
52126;SDS011;38120;53.176;6.614;2023-03-13T14:21:47;20.98;;;6.10;;
52126;SDS011;38120;53.176;6.614;2023-03-13T14:24:14;17.42;;;4.07;;
52126;SDS011;38120;53.176;6.614;2023-03-13T14:26:41;17.67;;;4.55;;
52126;SDS011;38120;53.176;6.614;2023-03-13T14:29:14;16.73;;;3.58;;
52126;SDS011;38120;53.176;6.614;2023-03-13T14:31:46;15.93;;;3.85;;
52126;SDS011;38120;53.176;6.614;2023-03-13T14:34:15;27.17;;;5.20;;
52126;SDS011;38120;53.176;6.614;2023-03-13T14:36:48;13.43;;;4.50;;
52126;SDS011;38120;53.176;6.614;2023-03-13T14:42:16;19.25;;;4.65;;
52126;SDS011;38120;53.176;6.614;2023-03-13T14:44:43;18.67;;;5.20;;
52126;SDS011;38120;53.176;6.614;2023-03-13T14:47:22;16.15;;;3.90;;
52126;SDS011;38120;53.176;6.614;2023-03-13T14:50:00;17.08;;;5.22;;
52126;SDS011;38120;53.176;6.614;2023-03-13T14:52:35;11.48;;;4.25;;
52126;SDS011;38120;53.176;6.614;2023-03-13T14:57:32;17.70;;;4.22;;
52126;SDS011;38120;53.176;6.614;2023-03-13T15:05:47;20.40;;;4.47;;
52126;SDS011;38120;53.176;6.614;2023-03-13T15:08:25;12.88;;;3.45;;
52126;SDS011;38120;53.176;6.614;2023-03-13T15:10:51;15.90;;;4.20;;
52126;SDS011;38120;53.176;6.614;2023-03-13T15:15:56;14.55;;;4.35;;
52126;SDS011;38120;53.176;6.614;2023-03-13T15:18:26;17.95;;;4.72;;
52126;SDS011;38120;53.176;6.614;2023-03-13T15:20:58;18.00;;;4.70;;
52126;SDS011;38120;53.176;6.614;2023-03-13T15:23:52;23.83;;;6.50;;
52126;SDS011;38120;53.176;6.614;2023-03-13T15:26:25;23.58;;;5.10;;
52126;SDS011;38120;53.176;6.614;2023-03-13T15:31:17;18.23;;;6.38;;
52126;SDS011;38120;53.176;6.614;2023-03-13T15:33:46;15.57;;;3.92;;
52126;SDS011;38120;53.176;6.614;2023-03-13T15:36:17;20.77;;;3.78;;
52126;SDS011;38120;53.176;6.614;2023-03-13T15:38:42;15.70;;;5.13;;
52126;SDS011;38120;53.176;6.614;2023-03-13T15:41:08;17.63;;;5.13;;
52126;SDS011;38120;53.176;6.614;2023-03-13T15:43:34;22.25;;;5.32;;
52126;SDS011;38120;53.176;6.614;2023-03-13T15:46:00;18.05;;;4.35;;
52126;SDS011;38120;53.176;6.614;2023-03-13T15:48:26;21.35;;;5.97;;
52126;SDS011;38120;53.176;6.614;2023-03-13T15:50:54;16.83;;;4.47;;
52126;SDS011;38120;53.176;6.614;2023-03-13T15:53:32;19.35;;;5.65;;
52126;SDS011;38120;53.176;6.614;2023-03-13T15:56:00;15.45;;;4.20;;
52126;SDS011;38120;53.176;6.614;2023-03-13T15:58:28;26.05;;;4.75;;
52126;SDS011;38120;53.176;6.614;2023-03-13T16:00:55;15.38;;;5.03;;
52126;SDS011;38120;53.176;6.614;2023-03-13T16:03:25;23.38;;;4.97;;
52126;SDS011;38120;53.176;6.614;2023-03-13T16:05:53;19.80;;;4.60;;
52126;SDS011;38120;53.176;6.614;2023-03-13T16:08:21;21.67;;;4.57;;
52126;SDS011;38120;53.176;6.614;2023-03-13T16:10:48;21.83;;;5.88;;
52126;SDS011;38120;53.176;6.614;2023-03-13T16:13:15;16.98;;;4.55;;
52126;SDS011;38120;53.176;6.614;2023-03-13T16:18:20;24.50;;;4.95;;
52126;SDS011;38120;53.176;6.614;2023-03-13T16:20:47;21.88;;;5.75;;
52126;SDS011;38120;53.176;6.614;2023-03-13T16:23:14;20.10;;;4.90;;
52126;SDS011;38120;53.176;6.614;2023-03-13T16:25:41;20.20;;;5.00;;
52126;SDS011;38120;53.176;6.614;2023-03-13T16:28:11;21.52;;;6.13;;
52126;SDS011;38120;53.176;6.614;2023-03-13T16:30:39;18.98;;;6.22;;
52126;SDS011;38120;53.176;6.614;2023-03-13T16:33:08;21.85;;;5.57;;
52126;SDS011;38120;53.176;6.614;2023-03-13T16:35:35;22.60;;;5.93;;
52126;SDS011;38120;53.176;6.614;2023-03-13T16:38:01;20.70;;;4.43;;
52126;SDS011;38120;53.176;6.614;2023-03-13T16:42:55;23.90;;;5.43;;
52126;SDS011;38120;53.176;6.614;2023-03-13T16:45:20;26.75;;;5.00;;
52126;SDS011;38120;53.176;6.614;2023-03-13T16:47:46;15.80;;;4.53;;
52126;SDS011;38120;53.176;6.614;2023-03-13T16:50:19;19.20;;;5.43;;
52126;SDS011;38120;53.176;6.614;2023-03-13T16:52:58;25.02;;;5.35;;
52126;SDS011;38120;53.176;6.614;2023-03-13T16:55:24;18.90;;;5.00;;
52126;SDS011;38120;53.176;6.614;2023-03-13T16:57:56;12.75;;;4.43;;
52126;SDS011;38120;53.176;6.614;2023-03-13T17:00:23;16.25;;;4.47;;
52126;SDS011;38120;53.176;6.614;2023-03-13T17:02:50;20.42;;;5.00;;
52126;SDS011;38120;53.176;6.614;2023-03-13T17:05:17;23.02;;;5.20;;
52126;SDS011;38120;53.176;6.614;2023-03-13T17:07:44;17.30;;;5.75;;
52126;SDS011;38120;53.176;6.614;2023-03-13T17:12:54;14.65;;;5.30;;
52126;SDS011;38120;53.176;6.614;2023-03-13T17:15:20;25.85;;;6.15;;
52126;SDS011;38120;53.176;6.614;2023-03-13T17:20:19;23.85;;;3.85;;